Time;durP1;ratioP1;P1;durP2;ratioP2;P2;SDS_P1;SDS_P2;PMS_P1;PMS_P2;Temp;Humidity;BMP_temperature;BMP_pressure;BME280_temperature;BME280_humidity;BME280_pressure;Samples;Min_cycle;Max_cycle;Signal;HPM_P1;HPM_P2
2023/09/11 00:00:38;;;;;;;19.35;4.25;;;;;;;;;;10384992;22;20707;-74
2023/09/11 00:04:38;;;;;;;15.95;3.72;;;;;;;;;;10388605;22;20015;-75
2023/09/11 00:08:40;;;;;;;13.05;3.85;;;;;;;;;;10388346;22;20046;-74
2023/09/11 00:12:40;;;;;;;11.93;3.40;;;;;;;;;;10385091;22;20018;-74
2023/09/11 00:16:41;;;;;;;11.75;3.47;;;;;;;;;;10384822;22;20240;-74
2023/09/11 00:20:42;;;;;;;13.50;3.65;;;;;;;;;;10384717;22;20113;-74
2023/09/11 00:24:42;;;;;;;13.20;3.63;;;;;;;;;;10388301;22;19999;-75
2023/09/11 00:28:42;;;;;;;8.70;2.73;;;;;;;;;;10384672;22;20003;-75
2023/09/11 00:32:42;;;;;;;11.48;3.28;;;;;;;;;;10381653;22;20031;-74
2023/09/11 00:36:45;;;;;;;12.45;3.33;;;;;;;;;;10382238;22;20000;-75
2023/09/11 00:40:45;;;;;;;12.65;3.53;;;;;;;;;;10384985;22;20015;-75
2023/09/11 00:44:45;;;;;;;15.15;3.65;;;;;;;;;;10391546;22;20072;-75
2023/09/11 00:48:46;;;;;;;15.23;3.60;;;;;;;;;;10390889;22;20038;-74
2023/09/11 00:52:47;;;;;;;14.43;4.05;;;;;;;;;;10388762;22;20019;-75
2023/09/11 00:56:47;;;;;;;11.90;3.70;;;;;;;;;;10392266;22;20014;-75
2023/09/11 01:00:48;;;;;;;14.10;4.45;;;;;;;;;;10389850;22;20019;-75
2023/09/11 01:04:48;;;;;;;11.70;3.75;;;;;;;;;;10392949;22;20360;-74
2023/09/11 01:08:51;;;;;;;14.10;3.53;;;;;;;;;;10394454;22;20030;-74
2023/09/11 01:12:51;;;;;;;17.00;4.77;;;;;;;;;;10393116;22;20401;-74
2023/09/11 01:17:11;;;;;;;14.73;4.13;;;;;;;;;;10393522;22;20015;-74
2023/09/11 01:21:36;;;;;;;13.98;3.60;;;;;;;;;;10391179;22;19999;-74
2023/09/11 01:25:42;;;;;;;14.52;3.75;;;;;;;;;;10392365;22;20377;-73
2023/09/11 01:29:44;;;;;;;16.00;4.30;;;;;;;;;;10388850;22;20107;-74
2023/09/11 01:33:44;;;;;;;16.38;4.03;;;;;;;;;;10385872;22;20019;-74
2023/09/11 01:37:44;;;;;;;12.43;3.83;;;;;;;;;;10391536;22;20078;-74
2023/09/11 01:41:46;;;;;;;11.15;3.78;;;;;;;;;;10385903;22;20018;-74
2023/09/11 01:45:46;;;;;;;12.30;3.67;;;;;;;;;;10391628;22;20073;-74
2023/09/11 01:49:47;;;;;;;11.25;3.83;;;;;;;;;;10389662;22;20440;-73
2023/09/11 01:53:47;;;;;;;16.17;4.07;;;;;;;;;;10388566;22;19999;-74
2023/09/11 01:57:49;;;;;;;15.38;3.30;;;;;;;;;;10388335;22;20054;-74
2023/09/11 02:01:49;;;;;;;15.73;3.95;;;;;;;;;;10384539;22;20105;-75
2023/09/11 02:05:49;;;;;;;13.27;3.93;;;;;;;;;;10392194;22;20530;-74
2023/09/11 02:09:53;;;;;;;13.23;3.90;;;;;;;;;;10383945;22;20007;-74
2023/09/11 02:13:53;;;;;;;11.02;3.88;;;;;;;;;;10388356;22;20222;-74
2023/09/11 02:17:54;;;;;;;11.88;3.50;;;;;;;;;;10385132;22;20285;-74
2023/09/11 02:21:54;;;;;;;9.48;3.47;;;;;;;;;;10388194;22;20011;-74
2023/09/11 02:25:55;;;;;;;11.15;4.07;;;;;;;;;;10387874;22;20029;-74
2023/09/11 02:29:55;;;;;;;10.90;3.90;;;;;;;;;;10390166;22;19995;-74
2023/09/11 02:33:55;;;;;;;15.32;3.90;;;;;;;;;;10391734;22;20019;-74
2023/09/11 02:37:55;;;;;;;14.03;3.40;;;;;;;;;;10395600;22;19999;-75
2023/09/11 02:41:56;;;;;;;9.88;3.88;;;;;;;;;;10389002;22;20022;-74
2023/09/11 02:45:56;;;;;;;10.55;3.65;;;;;;;;;;10391173;22;20016;-75
2023/09/11 02:49:56;;;;;;;10.13;3.90;;;;;;;;;;10389226;22;20007;-74
2023/09/11 02:53:56;;;;;;;11.95;3.80;;;;;;;;;;10391238;22;20007;-74
2023/09/11 02:57:59;;;;;;;8.50;3.38;;;;;;;;;;10391625;22;20003;-75
2023/09/11 03:01:59;;;;;;;11.07;3.83;;;;;;;;;;10387325;22;20503;-75
2023/09/11 03:06:00;;;;;;;15.40;4.03;;;;;;;;;;10392900;22;20014;-74
2023/09/11 03:10:01;;;;;;;15.50;3.88;;;;;;;;;;10385081;22;20436;-74
2023/09/11 03:14:02;;;;;;;14.05;3.65;;;;;;;;;;10385381;22;20003;-74
2023/09/11 03:18:02;;;;;;;11.10;3.40;;;;;;;;;;10384873;22;20016;-74
2023/09/11 03:22:03;;;;;;;14.40;3.67;;;;;;;;;;10383113;22;20011;-74
2023/09/11 03:26:11;;;;;;;10.18;3.97;;;;;;;;;;10384299;22;20414;-74
2023/09/11 03:30:11;;;;;;;13.30;3.60;;;;;;;;;;10391892;22;20003;-74
2023/09/11 03:34:13;;;;;;;11.48;3.50;;;;;;;;;;10386820;22;20030;-75
2023/09/11 03:38:14;;;;;;;10.65;3.72;;;;;;;;;;10389175;22;20018;-74
2023/09/11 03:42:15;;;;;;;12.10;3.28;;;;;;;;;;10387662;22;20094;-74
2023/09/11 03:46:15;;;;;;;11.68;3.30;;;;;;;;;;10388610;22;20045;-74
2023/09/11 03:50:16;;;;;;;11.27;3.60;;;;;;;;;;10384538;22;20007;-74
2023/09/11 03:54:19;;;;;;;15.07;3.97;;;;;;;;;;10356225;22;20664;-75
2023/09/11 03:58:20;;;;;;;15.35;3.40;;;;;;;;;;10388478;22;20239;-75
2023/09/11 04:02:20;;;;;;;12.07;3.78;;;;;;;;;;10383232;22;20022;-75
2023/09/11 04:06:21;;;;;;;10.50;3.33;;;;;;;;;;10385330;22;20015;-75
2023/09/11 04:10:21;;;;;;;12.30;4.10;;;;;;;;;;10355756;22;20000;-75
2023/09/11 04:14:21;;;;;;;16.75;3.60;;;;;;;;;;10385084;22;20252;-75
2023/09/11 04:18:21;;;;;;;12.53;3.50;;;;;;;;;;10355641;22;20018;-75
2023/09/11 04:22:22;;;;;;;8.90;3.58;;;;;;;;;;10385847;22;20058;-74
2023/09/11 04:26:22;;;;;;;10.70;3.35;;;;;;;;;;10383130;22;20493;-75
2023/09/11 04:30:23;;;;;;;12.65;3.78;;;;;;;;;;10386152;22;20027;-75
2023/09/11 04:34:23;;;;;;;13.65;3.90;;;;;;;;;;10389695;22;20026;-75
2023/09/11 04:38:24;;;;;;;14.50;3.80;;;;;;;;;;10386946;22;19999;-74
2023/09/11 04:42:24;;;;;;;13.65;3.78;;;;;;;;;;10384201;22;20058;-75
2023/09/11 04:46:25;;;;;;;11.00;4.10;;;;;;;;;;10381031;22;20898;-70
2023/09/11 04:50:25;;;;;;;9.60;3.88;;;;;;;;;;10329714;22;1040887;-71
2023/09/11 04:54:25;;;;;;;18.33;4.30;;;;;;;;;;10377424;22;20006;-70
2023/09/11 04:58:26;;;;;;;16.30;4.10;;;;;;;;;;10378388;22;20068;-71
2023/09/11 05:02:26;;;;;;;12.23;4.10;;;;;;;;;;10377249;22;20122;-70
2023/09/11 05:06:26;;;;;;;9.57;3.85;;;;;;;;;;10376589;22;20114;-70
2023/09/11 05:10:26;;;;;;;13.35;3.78;;;;;;;;;;10374504;22;19995;-70
2023/09/11 05:14:26;;;;;;;15.77;4.05;;;;;;;;;;10382718;22;19999;-69
2023/09/11 05:18:27;;;;;;;10.65;3.80;;;;;;;;;;10371499;22;20007;-71
2023/09/11 05:22:27;;;;;;;12.30;3.65;;;;;;;;;;10370724;22;20002;-70
2023/09/11 05:26:27;;;;;;;9.07;3.50;;;;;;;;;;10379556;22;20002;-72
2023/09/11 05:30:28;;;;;;;9.60;3.45;;;;;;;;;;10375652;22;20530;-72
2023/09/11 05:34:28;;;;;;;14.00;3.40;;;;;;;;;;10379134;22;20082;-73
2023/09/11 05:38:28;;;;;;;8.25;3.17;;;;;;;;;;10379448;22;19996;-72
2023/09/11 05:42:29;;;;;;;17.15;4.28;;;;;;;;;;10379879;22;19999;-73
2023/09/11 05:46:29;;;;;;;14.48;3.95;;;;;;;;;;10380117;22;20019;-73
2023/09/11 05:50:29;;;;;;;15.77;3.75;;;;;;;;;;10380086;22;20007;-73
2023/09/11 05:54:30;;;;;;;13.13;3.20;;;;;;;;;;10375197;22;20004;-73
2023/09/11 05:58:31;;;;;;;11.73;3.67;;;;;;;;;;10381319;22;20062;-73
2023/09/11 06:02:31;;;;;;;13.90;3.83;;;;;;;;;;10379511;22;20077;-73
2023/09/11 06:06:31;;;;;;;10.05;3.70;;;;;;;;;;10382020;22;20585;-72
2023/09/11 06:10:33;;;;;;;18.95;4.13;;;;;;;;;;10378645;22;20007;-73
2023/09/11 06:14:37;;;;;;;17.05;4.13;;;;;;;;;;10379031;22;20061;-74
2023/09/11 06:18:38;;;;;;;15.00;4.10;;;;;;;;;;10383399;22;20361;-74
2023/09/11 06:22:38;;;;;;;14.55;3.92;;;;;;;;;;10382827;22;20106;-74
2023/09/11 06:26:41;;;;;;;19.73;4.00;;;;;;;;;;10382305;22;20030;-74
2023/09/11 06:30:42;;;;;;;17.63;3.65;;;;;;;;;;10379138;22;20483;-74
2023/09/11 06:34:42;;;;;;;23.73;4.10;;;;;;;;;;10382552;22;19995;-74
2023/09/11 06:38:43;;;;;;;18.53;3.70;;;;;;;;;;10381138;22;20005;-74
2023/09/11 06:42:43;;;;;;;17.30;4.63;;;;;;;;;;10378764;22;21041;-74
2023/09/11 06:46:43;;;;;;;15.75;4.20;;;;;;;;;;10373944;22;20023;-75
2023/09/11 06:50:44;;;;;;;17.87;4.57;;;;;;;;;;10380043;22;20011;-75
2023/09/11 06:54:44;;;;;;;15.37;4.53;;;;;;;;;;10380337;22;19996;-74
2023/09/11 06:58:45;;;;;;;16.00;4.53;;;;;;;;;;10383058;22;20774;-75
2023/09/11 07:02:48;;;;;;;18.17;4.75;;;;;;;;;;10374908;22;20094;-75
2023/09/11 07:06:51;;;;;;;16.40;4.38;;;;;;;;;;10378859;22;20091;-75
2023/09/11 07:10:54;;;;;;;16.30;4.28;;;;;;;;;;10377137;22;19999;-75
2023/09/11 07:14:54;;;;;;;16.85;4.93;;;;;;;;;;10381383;22;20772;-75
2023/09/11 07:18:55;;;;;;;13.00;4.70;;;;;;;;;;10382083;22;20799;-75
2023/09/11 07:22:55;;;;;;;17.83;4.95;;;;;;;;;;10377436;22;20003;-73
2023/09/11 07:26:55;;;;;;;17.02;4.50;;;;;;;;;;10382418;22;19996;-74
2023/09/11 07:30:55;;;;;;;13.63;4.63;;;;;;;;;;10381023;22;20106;-74
2023/09/11 07:34:56;;;;;;;16.05;4.43;;;;;;;;;;10382302;22;19991;-74
2023/09/11 07:38:56;;;;;;;14.77;4.65;;;;;;;;;;10380589;22;20022;-74
2023/09/11 07:42:56;;;;;;;20.13;5.07;;;;;;;;;;10381249;22;19999;-73
2023/09/11 07:46:57;;;;;;;18.40;4.45;;;;;;;;;;10380823;22;20384;-74
2023/09/11 07:50:57;;;;;;;16.77;4.70;;;;;;;;;;10381294;22;20517;-73
2023/09/11 07:54:57;;;;;;;18.08;5.22;;;;;;;;;;10384287;22;20130;-74
2023/09/11 07:58:57;;;;;;;16.80;4.97;;;;;;;;;;10381772;22;20056;-74
2023/09/11 08:02:58;;;;;;;17.05;4.97;;;;;;;;;;10377837;22;20015;-74
2023/09/11 08:06:58;;;;;;;17.92;5.18;;;;;;;;;;10379783;22;20014;-73
2023/09/11 08:10:58;;;;;;;14.40;4.47;;;;;;;;;;10381210;22;20010;-73
2023/09/11 08:14:59;;;;;;;17.63;4.30;;;;;;;;;;10383356;22;20288;-73
2023/09/11 08:18:59;;;;;;;14.20;4.57;;;;;;;;;;10381788;22;20021;-73
2023/09/11 08:22:59;;;;;;;19.05;4.43;;;;;;;;;;10381160;22;20032;-73
2023/09/11 08:27:00;;;;;;;13.43;5.17;;;;;;;;;;10378227;22;20075;-73
2023/09/11 08:31:00;;;;;;;9.13;4.30;;;;;;;;;;10367738;22;20015;-73
2023/09/11 08:35:02;;;;;;;17.20;4.73;;;;;;;;;;10382535;22;20416;-73
2023/09/11 08:39:02;;;;;;;;;;;;;;;;;;10381456;22;19999;-73
2023/09/11 08:43:02;;;;;;;14.95;4.75;;;;;;;;;;10379422;22;19971;-73
2023/09/11 08:47:03;;;;;;;13.07;4.33;;;;;;;;;;10380827;22;20091;-73
2023/09/11 08:51:07;;;;;;;14.10;4.50;;;;;;;;;;10378764;22;20030;-73
2023/09/11 08:55:09;;;;;;;15.73;4.18;;;;;;;;;;10381074;22;20487;-73
2023/09/11 08:59:11;;;;;;;12.55;4.30;;;;;;;;;;10376097;22;20349;-73
2023/09/11 09:03:12;;;;;;;13.70;4.45;;;;;;;;;;10380359;22;20110;-73
2023/09/11 09:07:12;;;;;;;16.50;5.13;;;;;;;;;;10381438;22;20266;-73
2023/09/11 09:11:13;;;;;;;10.65;4.25;;;;;;;;;;10378458;22;20030;-73
2023/09/11 09:15:14;;;;;;;19.13;4.50;;;;;;;;;;10378008;22;19995;-73
2023/09/11 09:19:15;;;;;;;11.23;4.00;;;;;;;;;;10378033;22;20738;-73
2023/09/11 09:23:16;;;;;;;11.13;4.00;;;;;;;;;;10379182;22;20390;-73
2023/09/11 09:27:16;;;;;;;13.07;4.00;;;;;;;;;;10377770;22;20003;-74
2023/09/11 09:31:24;;;;;;;11.10;4.10;;;;;;;;;;10378250;22;20069;-74
2023/09/11 09:35:26;;;;;;;12.15;4.00;;;;;;;;;;10367850;22;19999;-74
2023/09/11 09:39:28;;;;;;;14.57;4.00;;;;;;;;;;10375382;22;20069;-73
2023/09/11 09:43:30;;;;;;;12.13;4.00;;;;;;;;;;10373981;22;20002;-74
2023/09/11 09:47:30;;;;;;;14.32;4.10;;;;;;;;;;10372842;22;20094;-74
2023/09/11 09:51:44;;;;;;;18.20;4.47;;;;;;;;;;10373670;22;20021;-73
2023/09/11 09:55:44;;;;;;;13.27;4.05;;;;;;;;;;10371351;22;20007;-73
2023/09/11 09:59:52;;;;;;;15.43;4.15;;;;;;;;;;10372817;22;20017;-73
2023/09/11 10:03:53;;;;;;;14.30;4.53;;;;;;;;;;10369562;22;20046;-73
2023/09/11 10:07:58;;;;;;;14.88;4.43;;;;;;;;;;10371500;22;20449;-73
2023/09/11 10:12:03;;;;;;;10.93;4.05;;;;;;;;;;10373986;22;19999;-75
2023/09/11 10:16:05;;;;;;;13.60;4.40;;;;;;;;;;10367639;22;20020;-74
2023/09/11 10:20:05;;;;;;;14.35;4.05;;;;;;;;;;10370814;22;20011;-74
2023/09/11 10:24:08;;;;;;;16.77;4.20;;;;;;;;;;10372573;22;19995;-74
2023/09/11 10:28:12;;;;;;;16.70;4.63;;;;;;;;;;10373227;22;20126;-74
2023/09/11 10:32:18;;;;;;;17.45;4.28;;;;;;;;;;10371747;22;20026;-74
2023/09/11 10:36:20;;;;;;;13.35;4.75;;;;;;;;;;10372484;22;19999;-74
2023/09/11 10:40:21;;;;;;;17.55;4.30;;;;;;;;;;10370688;22;20093;-74
2023/09/11 10:44:21;;;;;;;14.83;4.13;;;;;;;;;;10374531;22;20368;-73
2023/09/11 10:48:25;;;;;;;13.13;4.40;;;;;;;;;;10371519;22;19999;-73
2023/09/11 10:52:25;;;;;;;10.55;4.20;;;;;;;;;;10378935;22;20010;-73
2023/09/11 10:56:25;;;;;;;29.58;4.95;;;;;;;;;;10377195;22;20863;-73
2023/09/11 11:00:26;;;;;;;17.05;4.63;;;;;;;;;;10378553;22;20479;-74
2023/09/11 11:04:30;;;;;;;17.25;4.65;;;;;;;;;;10379017;22;20021;-74
2023/09/11 11:08:31;;;;;;;22.45;4.30;;;;;;;;;;10386384;22;19999;-73
2023/09/11 11:12:32;;;;;;;11.77;3.88;;;;;;;;;;10376950;22;20026;-75
2023/09/11 11:16:36;;;;;;;11.90;3.90;;;;;;;;;;10373873;22;20015;-74
2023/09/11 11:20:37;;;;;;;12.65;3.95;;;;;;;;;;10378714;22;20007;-74
2023/09/11 11:24:52;;;;;;;12.07;4.13;;;;;;;;;;10373422;22;19999;-73
2023/09/11 11:28:52;;;;;;;17.40;4.25;;;;;;;;;;10363979;22;20581;-74
2023/09/11 11:33:02;;;;;;;12.57;3.93;;;;;;;;;;10372194;22;20012;-74
2023/09/11 11:37:04;;;;;;;14.43;4.00;;;;;;;;;;10372839;22;20337;-74
2023/09/11 11:41:07;;;;;;;15.82;4.22;;;;;;;;;;10373966;22;20018;-73
2023/09/11 11:45:08;;;;;;;10.75;4.00;;;;;;;;;;10370378;22;20693;-74
2023/09/11 11:49:08;;;;;;;17.55;4.32;;;;;;;;;;10397684;22;20037;-62
2023/09/11 11:53:20;;;;;;;11.27;4.20;;;;;;;;;;10367293;22;20003;-63
2023/09/11 11:57:21;;;;;;;12.20;4.40;;;;;;;;;;10365748;22;20038;-62
2023/09/11 12:01:21;;;;;;;15.70;3.95;;;;;;;;;;10366688;22;20019;-62
2023/09/11 12:05:21;;;;;;;13.50;3.73;;;;;;;;;;10371309;22;20432;-63
2023/09/11 12:09:22;;;;;;;13.27;4.00;;;;;;;;;;10364997;22;20969;-62
2023/09/11 12:13:23;;;;;;;11.88;4.28;;;;;;;;;;10369605;22;20113;-62
2023/09/11 12:17:23;;;;;;;12.73;3.70;;;;;;;;;;10368084;22;20136;-62
2023/09/11 12:21:23;;;;;;;10.60;3.73;;;;;;;;;;10367760;22;20006;-63
2023/09/11 12:25:24;;;;;;;11.80;3.80;;;;;;;;;;10368654;22;19996;-62
2023/09/11 12:29:26;;;;;;;11.73;3.97;;;;;;;;;;10367711;22;20102;-62
2023/09/11 12:33:28;;;;;;;11.48;3.70;;;;;;;;;;10365813;22;20400;-62
2023/09/11 12:37:29;;;;;;;14.48;4.32;;;;;;;;;;10363781;22;20118;-62
2023/09/11 12:41:29;;;;;;;11.88;3.42;;;;;;;;;;10359119;22;20375;-62
2023/09/11 12:45:29;;;;;;;18.40;4.25;;;;;;;;;;10366478;22;20007;-62
2023/09/11 12:49:30;;;;;;;10.23;3.78;;;;;;;;;;10364130;22;20061;-62
2023/09/11 12:53:30;;;;;;;12.90;3.87;;;;;;;;;;10368342;22;20011;-62
2023/09/11 12:57:30;;;;;;;13.13;3.95;;;;;;;;;;10366872;22;19995;-62
2023/09/11 13:01:31;;;;;;;10.13;3.73;;;;;;;;;;10367474;22;20026;-62
2023/09/11 13:05:31;;;;;;;13.45;4.22;;;;;;;;;;10368596;22;20003;-62
2023/09/11 13:09:33;;;;;;;12.47;3.77;;;;;;;;;;10367914;22;20003;-62
2023/09/11 13:13:33;;;;;;;15.90;4.32;;;;;;;;;;10367321;22;20248;-62
2023/09/11 13:17:33;;;;;;;11.90;3.90;;;;;;;;;;10367569;22;20038;-63
2023/09/11 13:21:34;;;;;;;10.77;3.45;;;;;;;;;;10364700;22;20010;-62
2023/09/11 13:25:34;;;;;;;10.43;3.63;;;;;;;;;;10368681;22;20003;-63
2023/09/11 13:29:34;;;;;;;11.68;3.15;;;;;;;;;;10365567;22;20222;-62
2023/09/11 13:33:35;;;;;;;11.60;3.65;;;;;;;;;;10366951;22;20022;-62
2023/09/11 13:37:36;;;;;;;17.45;3.72;;;;;;;;;;10365499;22;20129;-62
2023/09/11 13:41:36;;;;;;;10.27;3.67;;;;;;;;;;10364687;22;20090;-62
2023/09/11 13:45:36;;;;;;;10.63;4.05;;;;;;;;;;10364095;22;20011;-62
2023/09/11 13:49:36;;;;;;;7.90;3.67;;;;;;;;;;10364494;22;20885;-62
2023/09/11 13:53:37;;;;;;;12.13;3.70;;;;;;;;;;10365511;22;19999;-62
2023/09/11 13:57:37;;;;;;;8.45;3.63;;;;;;;;;;10367070;22;20003;-62
2023/09/11 14:01:37;;;;;;;12.75;3.75;;;;;;;;;;10353367;22;20655;-62
2023/09/11 14:05:37;;;;;;;13.95;3.35;;;;;;;;;;10363205;22;20331;-62
2023/09/11 14:09:38;;;;;;;10.67;3.80;;;;;;;;;;10366870;22;20074;-62
2023/09/11 14:13:39;;;;;;;8.73;3.50;;;;;;;;;;10365854;22;20001;-62
2023/09/11 14:17:39;;;;;;;13.60;4.20;;;;;;;;;;10367170;22;20241;-62
2023/09/11 14:21:39;;;;;;;12.73;3.47;;;;;;;;;;10354675;22;20098;-62
2023/09/11 14:25:40;;;;;;;7.10;3.83;;;;;;;;;;10369811;22;20084;-62
2023/09/11 14:29:40;;;;;;;11.88;3.97;;;;;;;;;;10374019;22;20054;-62
2023/09/11 14:33:40;;;;;;;10.25;3.67;;;;;;;;;;10372111;22;20011;-62
2023/09/11 14:37:40;;;;;;;11.30;4.33;;;;;;;;;;10375063;22;20045;-62
2023/09/11 14:41:41;;;;;;;12.47;3.90;;;;;;;;;;10374103;22;20310;-62
2023/09/11 14:45:41;;;;;;;11.75;3.63;;;;;;;;;;10373750;22;20048;-62
2023/09/11 14:49:41;;;;;;;10.23;3.85;;;;;;;;;;10375289;22;20101;-62
2023/09/11 14:53:42;;;;;;;14.30;4.07;;;;;;;;;;10374686;22;20110;-62
2023/09/11 14:57:42;;;;;;;10.77;4.20;;;;;;;;;;10377330;22;20218;-62
2023/09/11 15:01:42;;;;;;;9.97;4.00;;;;;;;;;;10377128;22;20323;-62
2023/09/11 15:05:43;;;;;;;13.10;3.93;;;;;;;;;;10376150;22;20430;-63
2023/09/11 15:09:44;;;;;;;11.93;3.67;;;;;;;;;;10373588;22;20038;-62
2023/09/11 15:13:45;;;;;;;12.85;4.03;;;;;;;;;;10375391;22;20000;-62
2023/09/11 15:17:45;;;;;;;13.80;4.07;;;;;;;;;;10374277;22;20110;-63
2023/09/11 15:21:45;;;;;;;11.63;3.95;;;;;;;;;;10370669;22;20007;-62
2023/09/11 15:25:46;;;;;;;12.40;4.28;;;;;;;;;;10373145;22;20003;-61
2023/09/11 15:29:46;;;;;;;11.82;4.13;;;;;;;;;;10375274;22;19999;-62
2023/09/11 15:33:46;;;;;;;13.23;4.00;;;;;;;;;;10371248;22;20364;-62
2023/09/11 15:37:46;;;;;;;12.97;3.97;;;;;;;;;;10375918;22;19999;-62
2023/09/11 15:41:46;;;;;;;10.15;4.25;;;;;;;;;;10375367;22;20007;-62
2023/09/11 15:45:47;;;;;;;10.13;4.15;;;;;;;;;;10376381;22;20011;-62
2023/09/11 15:49:47;;;;;;;12.50;3.90;;;;;;;;;;10368756;22;20003;-62
2023/09/11 15:53:47;;;;;;;8.68;3.95;;;;;;;;;;10367617;22;20007;-62
2023/09/11 15:57:47;;;;;;;8.43;3.80;;;;;;;;;;10366981;22;19999;-62
2023/09/11 16:01:47;;;;;;;10.60;3.60;;;;;;;;;;10368688;22;20019;-62
2023/09/11 16:05:48;;;;;;;10.00;3.90;;;;;;;;;;10368687;22;20007;-62
2023/09/11 16:09:48;;;;;;;12.80;4.32;;;;;;;;;;10368505;22;20003;-62
2023/09/11 16:13:49;;;;;;;14.00;4.27;;;;;;;;;;10369450;22;20009;-62
2023/09/11 16:17:49;;;;;;;14.73;3.80;;;;;;;;;;10369594;22;20069;-61
2023/09/11 16:21:49;;;;;;;14.57;4.28;;;;;;;;;;10370845;22;20010;-61
2023/09/11 16:25:49;;;;;;;9.93;3.63;;;;;;;;;;10372227;22;20007;-65
2023/09/11 16:29:50;;;;;;;9.75;4.13;;;;;;;;;;10371986;22;20958;-60
2023/09/11 16:33:52;;;;;;;9.95;3.40;;;;;;;;;;10374063;22;20766;-61
2023/09/11 16:37:52;;;;;;;;;;;;;;;;;;10378144;22;20060;-60
2023/09/11 16:41:52;;;;;;;10.63;3.90;;;;;;;;;;10373599;22;20551;-60
2023/09/11 16:45:53;;;;;;;9.63;3.77;;;;;;;;;;10374654;22;20022;-60
2023/09/11 16:49:56;;;;;;;10.60;3.97;;;;;;;;;;10376078;22;20096;-61
2023/09/11 16:53:56;;;;;;;11.68;3.80;;;;;;;;;;10371729;22;20101;-61
2023/09/11 16:57:56;;;;;;;10.90;3.75;;;;;;;;;;10375310;22;20007;-60
2023/09/11 17:01:56;;;;;;;10.13;4.10;;;;;;;;;;10374030;22;20019;-61
2023/09/11 17:05:57;;;;;;;13.48;4.13;;;;;;;;;;10375373;22;19999;-61
2023/09/11 17:09:57;;;;;;;12.98;4.15;;;;;;;;;;10373413;22;19996;-60
2023/09/11 17:13:58;;;;;;;9.30;4.07;;;;;;;;;;10373429;22;20003;-61
2023/09/11 17:17:58;;;;;;;8.07;3.88;;;;;;;;;;10372081;22;20436;-61
2023/09/11 17:21:58;;;;;;;11.20;3.83;;;;;;;;;;10374602;22;20499;-61
2023/09/11 17:25:58;;;;;;;8.43;3.42;;;;;;;;;;10374129;22;20231;-60
2023/09/11 17:29:59;;;;;;;8.30;3.50;;;;;;;;;;10372642;22;19999;-61
2023/09/11 17:34:00;;;;;;;10.98;3.75;;;;;;;;;;10371737;22;20007;-60
2023/09/11 17:38:00;;;;;;;9.85;3.75;;;;;;;;;;10374645;22;20106;-61
2023/09/11 17:42:00;;;;;;;9.55;3.70;;;;;;;;;;10370996;22;20006;-61
2023/09/11 17:46:00;;;;;;;12.80;4.38;;;;;;;;;;10371998;22;20018;-61
2023/09/11 17:50:03;;;;;;;8.23;3.55;;;;;;;;;;10371151;22;20034;-60
2023/09/11 17:54:03;;;;;;;7.03;3.17;;;;;;;;;;10374311;22;20782;-61
2023/09/11 17:58:03;;;;;;;10.70;4.05;;;;;;;;;;10373021;22;20515;-60
2023/09/11 18:02:04;;;;;;;10.65;3.88;;;;;;;;;;10372324;22;20102;-60
2023/09/11 18:06:04;;;;;;;5.60;3.22;;;;;;;;;;10375761;22;20046;-61
2023/09/11 18:10:04;;;;;;;6.60;3.50;;;;;;;;;;10373165;22;20098;-62
2023/09/11 18:14:05;;;;;;;6.82;3.60;;;;;;;;;;10372883;22;20038;-61
2023/09/11 18:18:08;;;;;;;8.70;3.93;;;;;;;;;;10373243;22;20019;-60
2023/09/11 18:22:08;;;;;;;6.03;3.60;;;;;;;;;;10371440;22;20245;-61
2023/09/11 18:26:08;;;;;;;5.57;3.30;;;;;;;;;;10373946;22;20050;-60
2023/09/11 18:30:09;;;;;;;4.43;3.20;;;;;;;;;;10368103;22;20658;-60
2023/09/11 18:34:10;;;;;;;4.65;3.42;;;;;;;;;;10372107;22;19987;-59
2023/09/11 18:38:10;;;;;;;5.40;3.53;;;;;;;;;;10373030;22;20667;-60
2023/09/11 18:42:10;;;;;;;11.35;3.90;;;;;;;;;;10369408;22;20887;-60
2023/09/11 18:46:11;;;;;;;6.50;3.40;;;;;;;;;;10362805;22;20035;-60
2023/09/11 18:50:11;;;;;;;4.60;3.58;;;;;;;;;;10367330;22;20008;-59
2023/09/11 18:54:15;;;;;;;6.97;3.65;;;;;;;;;;10364372;22;19999;-60
2023/09/11 18:58:15;;;;;;;6.15;3.35;;;;;;;;;;10366806;22;20063;-59
2023/09/11 19:02:15;;;;;;;7.75;3.80;;;;;;;;;;10362323;22;20085;-60
2023/09/11 19:06:16;;;;;;;10.00;3.70;;;;;;;;;;10365001;22;20039;-59
2023/09/11 19:10:16;;;;;;;10.10;4.15;;;;;;;;;;10367132;22;20078;-59
2023/09/11 19:14:17;;;;;;;5.03;3.50;;;;;;;;;;10369584;22;20665;-59
2023/09/11 19:18:17;;;;;;;7.32;4.30;;;;;;;;;;10367837;22;20102;-60
2023/09/11 19:22:17;;;;;;;7.13;3.58;;;;;;;;;;10368372;22;20073;-60
2023/09/11 19:26:18;;;;;;;6.50;3.60;;;;;;;;;;10368441;22;20226;-60
2023/09/11 19:30:18;;;;;;;7.13;3.63;;;;;;;;;;10366117;22;20422;-60
2023/09/11 19:34:18;;;;;;;10.98;4.20;;;;;;;;;;10367812;22;20109;-60
2023/09/11 19:38:19;;;;;;;6.90;3.85;;;;;;;;;;10367106;22;20011;-60
2023/09/11 19:42:19;;;;;;;5.90;3.57;;;;;;;;;;10370019;22;20014;-59
2023/09/11 19:46:19;;;;;;;7.13;3.75;;;;;;;;;;10368437;22;20015;-60
2023/09/11 19:50:19;;;;;;;11.23;3.87;;;;;;;;;;10369735;22;20014;-59
2023/09/11 19:54:20;;;;;;;8.03;3.90;;;;;;;;;;10369017;22;20060;-59
2023/09/11 19:58:20;;;;;;;8.33;3.47;;;;;;;;;;10369397;22;20022;-59
2023/09/11 20:02:20;;;;;;;8.40;3.10;;;;;;;;;;10367473;22;20023;-59
2023/09/11 20:06:21;;;;;;;7.80;3.83;;;;;;;;;;10373994;22;20057;-60
2023/09/11 20:10:23;;;;;;;7.32;3.53;;;;;;;;;;10370925;22;20760;-59
2023/09/11 20:14:23;;;;;;;13.18;3.92;;;;;;;;;;10372727;22;20625;-59
2023/09/11 20:18:23;;;;;;;6.72;3.83;;;;;;;;;;10367630;22;20015;-61
2023/09/11 20:22:24;;;;;;;8.63;3.53;;;;;;;;;;10372894;22;20061;-61
2023/09/11 20:26:25;;;;;;;6.70;3.30;;;;;;;;;;10371078;22;20011;-61
2023/09/11 20:30:26;;;;;;;9.02;4.00;;;;;;;;;;10370222;22;20004;-60
2023/09/11 20:34:26;;;;;;;6.00;3.13;;;;;;;;;;10367728;22;19999;-60
2023/09/11 20:38:26;;;;;;;12.45;4.28;;;;;;;;;;10371576;22;20002;-60
2023/09/11 20:42:27;;;;;;;6.88;3.50;;;;;;;;;;10369307;22;19999;-61
2023/09/11 20:46:29;;;;;;;9.73;3.90;;;;;;;;;;10371516;22;20069;-61
2023/09/11 20:50:29;;;;;;;9.13;3.50;;;;;;;;;;10370445;22;20268;-60
2023/09/11 20:54:30;;;;;;;11.55;3.60;;;;;;;;;;10370293;22;20003;-60
2023/09/11 20:58:30;;;;;;;9.67;3.63;;;;;;;;;;10370186;22;19999;-60
2023/09/11 21:02:32;;;;;;;12.17;3.53;;;;;;;;;;10370441;22;20254;-60
2023/09/11 21:06:33;;;;;;;11.05;3.92;;;;;;;;;;10370168;22;20403;-60
2023/09/11 21:10:33;;;;;;;9.25;3.75;;;;;;;;;;10370584;22;20411;-60
2023/09/11 21:14:33;;;;;;;11.40;3.92;;;;;;;;;;10370819;22;20335;-60
2023/09/11 21:18:33;;;;;;;14.30;3.65;;;;;;;;;;10368522;22;20027;-60
2023/09/11 21:22:33;;;;;;;8.48;3.97;;;;;;;;;;10368024;22;20082;-60
2023/09/11 21:26:34;;;;;;;16.83;3.45;;;;;;;;;;10366325;22;20102;-60
2023/09/11 21:30:34;;;;;;;10.30;3.93;;;;;;;;;;10365217;22;20676;-61
2023/09/11 21:34:34;;;;;;;15.07;4.43;;;;;;;;;;10368259;22;20061;-60
2023/09/11 21:38:34;;;;;;;10.50;4.45;;;;;;;;;;10370831;22;20052;-61
2023/09/11 21:42:35;;;;;;;8.63;3.85;;;;;;;;;;10369964;22;20007;-61
2023/09/11 21:46:35;;;;;;;10.60;4.10;;;;;;;;;;10370424;22;20767;-60
2023/09/11 21:50:35;;;;;;;13.00;4.20;;;;;;;;;;10367647;22;20102;-60
2023/09/11 21:54:36;;;;;;;8.20;3.53;;;;;;;;;;10371661;22;20050;-60
2023/09/11 21:58:37;;;;;;;14.65;4.80;;;;;;;;;;10368896;22;20037;-61
2023/09/11 22:02:37;;;;;;;13.40;3.90;;;;;;;;;;10368658;22;20331;-60
2023/09/11 22:06:37;;;;;;;10.65;4.07;;;;;;;;;;10373160;22;20103;-60
2023/09/11 22:10:41;;;;;;;12.87;3.90;;;;;;;;;;10370183;22;20003;-60
2023/09/11 22:14:41;;;;;;;13.88;4.10;;;;;;;;;;10372674;22;20425;-61
2023/09/11 22:18:41;;;;;;;10.60;4.13;;;;;;;;;;10368615;22;20024;-60
2023/09/11 22:22:42;;;;;;;7.65;3.40;;;;;;;;;;10371420;22;20014;-61
2023/09/11 22:26:42;;;;;;;12.40;4.13;;;;;;;;;;10373625;22;20003;-60
2023/09/11 22:30:49;;;;;;;10.02;3.78;;;;;;;;;;10368365;22;20236;-60
2023/09/11 22:34:50;;;;;;;10.35;3.90;;;;;;;;;;10373170;22;20017;-60
2023/09/11 22:38:50;;;;;;;11.63;3.75;;;;;;;;;;10353735;22;20122;-60
2023/09/11 22:42:50;;;;;;;11.85;4.22;;;;;;;;;;10368867;22;19999;-61
2023/09/11 22:46:50;;;;;;;10.25;3.85;;;;;;;;;;10373058;22;20018;-61
2023/09/11 22:50:51;;;;;;;13.87;4.30;;;;;;;;;;10375792;22;20015;-60
2023/09/11 22:54:51;;;;;;;9.65;4.28;;;;;;;;;;10374231;22;20010;-60
2023/09/11 22:58:51;;;;;;;10.05;4.45;;;;;;;;;;10376781;22;20034;-61
2023/09/11 23:02:51;;;;;;;12.35;4.25;;;;;;;;;;10373406;22;20015;-60
2023/09/11 23:06:51;;;;;;;9.25;3.90;;;;;;;;;;10377279;22;20002;-60
2023/09/11 23:10:52;;;;;;;12.10;3.88;;;;;;;;;;10377895;22;20007;-60
2023/09/11 23:14:52;;;;;;;11.43;4.00;;;;;;;;;;10377823;22;20007;-60
2023/09/11 23:18:53;;;;;;;12.25;3.95;;;;;;;;;;10375912;22;20027;-60
2023/09/11 23:22:53;;;;;;;11.32;3.92;;;;;;;;;;10376244;22;20038;-60
2023/09/11 23:26:53;;;;;;;12.60;4.47;;;;;;;;;;10376089;22;20320;-60